Kossuth, Iowa
Current Conditions -  °F | °C
As of 6:53 AM on Saturday 20 Dec 2014 (Local Time) from KBRL Reporting Station
Overcast Overcast  
Wind Chill: 26°   Ceiling: 1400
Heat Index: 31°   Visibility: 8mi
Dew Point: 26°   Wind: 5mph
Humidity: 82%   Direction: 150°SSE
Pressure: 30.23"   Gusts: NA
Location:  41.0155°N, 91.1055°W
Report Text: KBRL 201253Z AUTO 15004KT 8SM BKN014 OVC025 M01/M03 A3023 RMK AO2 UPB1157E10SNB10E16 SLP243 P0000 T10061033
Loading
Personal Weather Stations






























Interactive Weather Map New forecast layout! Learn more

10-Day Weather Forecast

Advertisements
Track Severe Weather on mobile